Time;durP1;ratioP1;P1;durP2;ratioP2;P2;SDS_P1;SDS_P2;PMS_P1;PMS_P2;Temp;Humidity;BMP_temperature;BMP_pressure;BME280_temperature;BME280_humidity;BME280_pressure;Samples;Min_cycle;Max_cycle;Signal;HPM_P1;HPM_P2
2022/04/09 00:01:21;;;;;;;17.75;9.03;;;;;;;5.01;72.26;98232.69;1729619;83;25636;-70
2022/04/09 00:03:48;;;;;;;14.07;8.45;;;;;;;5.00;72.58;98235.13;1712826;83;25539;-71
2022/04/09 00:06:14;;;;;;;12.98;8.90;;;;;;;4.99;72.81;98227.64;1729550;82;27475;-70
2022/04/09 00:08:40;;;;;;;14.00;7.97;;;;;;;5.00;72.71;98223.06;1729896;82;25645;-71
2022/04/09 00:11:08;;;;;;;13.32;8.05;;;;;;;5.00;73.19;98221.16;1730004;82;25569;-70
2022/04/09 00:13:36;;;;;;;12.80;8.15;;;;;;;4.99;73.31;98214.81;1730018;83;25609;-72
2022/04/09 00:16:03;;;;;;;12.40;8.05;;;;;;;4.98;73.39;98207.31;1730056;82;25473;-73
2022/04/09 00:18:29;;;;;;;11.65;7.12;;;;;;;4.99;73.23;98196.83;1730069;83;27521;-73
2022/04/09 00:20:55;;;;;;;10.70;7.28;;;;;;;5.00;73.57;98196.27;1729924;82;25407;-73
2022/04/09 00:23:23;;;;;;;11.05;6.53;;;;;;;5.01;73.57;98192.49;1730024;82;25490;-73
2022/04/09 00:25:51;;;;;;;11.30;6.70;;;;;;;5.01;73.93;98201.31;1730103;82;25579;-73
2022/04/09 00:28:20;;;;;;;14.80;7.92;;;;;;;5.01;73.95;98199.19;1729845;83;25505;-72
2022/04/09 00:30:47;;;;;;;11.05;6.67;;;;;;;5.01;74.43;98192.49;1730052;83;27516;-73
2022/04/09 00:33:13;;;;;;;12.37;6.40;;;;;;;5.00;74.47;98193.03;1730029;82;25659;-73
2022/04/09 00:35:39;;;;;;;9.45;6.55;;;;;;;5.00;74.46;98186.33;1730077;83;25449;-73
2022/04/09 00:38:06;;;;;;;9.05;6.60;;;;;;;4.99;74.49;98186.11;1730057;82;26228;-72
2022/04/09 00:40:32;;;;;;;13.30;6.55;;;;;;;4.98;74.84;98185.88;1730161;82;25525;-73
2022/04/09 00:42:58;;;;;;;9.78;6.50;;;;;;;5.00;75.21;98188.23;1730057;83;27514;-73
2022/04/09 00:45:25;;;;;;;10.00;6.45;;;;;;;4.98;75.08;98177.83;1729998;82;25394;-73
2022/04/09 00:47:52;;;;;;;10.63;6.90;;;;;;;5.00;75.48;98181.53;1730129;83;25607;-73
2022/04/09 00:50:18;;;;;;;10.38;7.00;;;;;;;4.97;75.48;98173.60;1730175;82;25526;-73
2022/04/09 00:52:51;;;;;;;9.55;6.70;;;;;;;4.97;75.88;98176.28;1730150;81;25580;-73
2022/04/09 00:57:51;;;;;;;11.15;6.58;;;;;;;4.97;76.17;98175.47;1685334;82;25480;-72
2022/04/09 01:00:19;;;;;;;9.58;6.87;;;;;;;4.94;76.22;98182.28;1730583;82;25624;-72
2022/04/09 01:02:46;;;;;;;9.60;6.72;;;;;;;4.93;76.49;98177.24;1730087;82;26107;-72
2022/04/09 01:05:13;;;;;;;7.28;6.30;;;;;;;4.93;76.51;98171.88;1730157;83;25528;-72
2022/04/09 01:07:40;;;;;;;10.03;7.08;;;;;;;4.92;76.74;98166.28;1730135;83;27503;-72
2022/04/09 01:10:08;;;;;;;10.48;7.22;;;;;;;4.93;76.86;98174.00;1730053;82;25600;-72
2022/04/09 01:12:37;;;;;;;10.93;7.72;;;;;;;4.93;76.83;98178.02;1730159;83;25537;-73
2022/04/09 01:15:07;;;;;;;9.30;7.08;;;;;;;4.94;77.15;98181.47;1730105;83;26035;-74
2022/04/09 01:17:38;;;;;;;10.45;6.87;;;;;;;4.95;77.26;98181.16;1730157;83;25540;-73
2022/04/09 01:20:21;;;;;;;12.10;6.37;;;;;;;4.94;77.10;98175.58;1730159;82;27550;-73
2022/04/09 01:22:48;;;;;;;11.38;7.25;;;;;;;4.95;77.11;98174.45;1728985;82;25450;-72
2022/04/09 01:25:14;;;;;;;9.65;6.83;;;;;;;4.96;77.22;98181.40;1730076;83;25689;-72
2022/04/09 01:27:41;;;;;;;11.53;7.70;;;;;;;4.98;77.46;98188.55;1730078;83;25608;-72
2022/04/09 01:30:10;;;;;;;9.25;7.40;;;;;;;4.99;77.50;98194.16;1730177;82;25374;-72
2022/04/09 01:32:36;;;;;;;12.00;8.13;;;;;;;4.99;77.54;98190.13;1730231;82;28106;-72
2022/04/09 01:35:04;;;;;;;11.05;7.75;;;;;;;5.01;77.53;98201.31;1730077;82;25599;-73
2022/04/09 01:37:31;;;;;;;11.25;7.15;;;;;;;5.02;77.58;98196.19;1730108;82;25472;-73
2022/04/09 01:39:58;;;;;;;11.28;8.00;;;;;;;5.03;77.71;98206.34;1730057;83;25576;-73
2022/04/09 01:42:26;;;;;;;11.53;8.03;;;;;;;5.02;77.92;98210.13;1730112;82;25411;-73
2022/04/09 01:44:53;;;;;;;13.13;8.00;;;;;;;5.02;77.95;98214.95;1730105;83;28061;-73
2022/04/09 01:47:20;;;;;;;10.68;8.13;;;;;;;4.99;78.02;98210.80;1730019;83;25583;-73
2022/04/09 01:49:48;;;;;;;10.82;7.55;;;;;;;4.98;78.02;98204.63;1730093;83;25543;-73
2022/04/09 01:52:14;;;;;;;10.50;6.92;;;;;;;4.98;78.17;98193.13;1730000;81;26037;-73
2022/04/09 01:54:41;;;;;;;10.00;7.53;;;;;;;4.95;78.27;98189.19;1730147;83;25587;-73
2022/04/09 01:57:07;;;;;;;9.53;7.15;;;;;;;4.94;78.74;98204.25;1730139;83;28079;-73
2022/04/09 01:59:34;;;;;;;8.83;7.53;;;;;;;4.90;78.63;98203.33;1729992;83;25370;-73
2022/04/09 02:02:00;;;;;;;9.93;7.80;;;;;;;4.88;78.88;98203.65;1730104;82;25408;-73
2022/04/09 02:04:26;;;;;;;10.90;7.53;;;;;;;4.86;79.16;98200.52;1730086;82;26353;-73
2022/04/09 02:06:54;;;;;;;11.55;7.92;;;;;;;4.82;79.31;98199.03;1730122;83;25556;-73
2022/04/09 02:09:20;;;;;;;9.05;7.70;;;;;;;4.79;79.39;98210.95;1730109;83;27597;-73
2022/04/09 02:11:47;;;;;;;10.08;7.70;;;;;;;4.75;79.57;98198.75;1729963;83;25475;-73
2022/04/09 02:14:13;;;;;;;9.75;7.92;;;;;;;4.73;79.56;98196.92;1730105;83;25728;-73
2022/04/09 02:16:40;;;;;;;10.78;8.53;;;;;;;4.73;79.97;98188.11;1730051;83;25545;-74
2022/04/09 02:19:08;;;;;;;9.93;8.18;;;;;;;4.71;79.90;98180.40;1730100;82;25631;-73
2022/04/09 02:21:35;;;;;;;10.32;8.13;;;;;;;4.70;80.12;98177.51;1730071;83;28043;-73
2022/04/09 02:24:01;;;;;;;9.75;8.50;;;;;;;4.68;80.49;98176.48;1730007;82;25647;-73
2022/04/09 02:26:27;;;;;;;13.10;8.65;;;;;;;4.63;80.50;98168.62;1730074;83;25600;-73
2022/04/09 02:28:53;;;;;;;10.53;8.48;;;;;;;4.61;80.29;98166.80;1730055;82;25549;-73
2022/04/09 02:31:20;;;;;;;8.90;7.90;;;;;;;4.59;80.27;98167.68;1730052;83;25447;-73
2022/04/09 02:33:49;;;;;;;12.05;8.40;;;;;;;4.58;80.75;98168.00;1730040;83;28440;-73
2022/04/09 02:36:15;;;;;;;11.03;8.55;;;;;;;4.57;80.48;98166.45;1729521;82;25422;-73
2022/04/09 02:38:43;;;;;;;9.80;8.15;;;;;;;4.56;80.89;98175.58;1730054;83;25557;-73
2022/04/09 02:41:09;;;;;;;11.25;8.40;;;;;;;4.54;80.84;98177.80;1730035;83;26150;-73
2022/04/09 02:43:37;;;;;;;9.80;8.08;;;;;;;4.52;81.04;98182.13;1730090;83;25587;-73
2022/04/09 02:46:04;;;;;;;12.13;8.38;;;;;;;4.51;81.09;98175.19;1730052;83;28154;-73
2022/04/09 02:48:31;;;;;;;11.75;9.45;;;;;;;4.49;81.34;98171.52;1730021;83;25711;-73
2022/04/09 02:50:58;;;;;;;10.25;8.63;;;;;;;4.47;81.42;98170.25;1730048;83;25639;-73
2022/04/09 02:53:24;;;;;;;12.43;8.50;;;;;;;4.46;81.50;98171.34;1740232;81;25639;-73
2022/04/09 02:55:51;;;;;;;14.93;9.43;;;;;;;4.44;81.59;98168.21;1758415;80;25481;-73
2022/04/09 02:58:17;;;;;;;11.18;9.08;;;;;;;4.44;81.63;98165.00;1758404;80;27595;-73
2022/04/09 03:00:44;;;;;;;11.97;9.03;;;;;;;4.43;81.90;98170.67;1758281;81;25591;-73
2022/04/09 03:03:10;;;;;;;12.07;9.48;;;;;;;4.39;81.78;98171.06;1758374;81;25551;-73
2022/04/09 03:05:37;;;;;;;11.03;9.08;;;;;;;4.42;82.04;98178.45;1758329;81;26180;-73
2022/04/09 03:08:04;;;;;;;14.83;9.58;;;;;;;4.42;82.03;98184.59;1758398;81;25460;-73
2022/04/09 03:10:30;;;;;;;13.03;9.68;;;;;;;4.42;82.13;98179.23;1758364;81;27565;-73
2022/04/09 03:12:58;;;;;;;10.58;9.50;;;;;;;4.42;82.11;98164.51;1758181;81;25559;-73
2022/04/09 03:15:29;;;;;;;16.15;10.25;;;;;;;4.44;82.33;98178.92;1758368;81;25412;-73
2022/04/09 03:17:55;;;;;;;15.68;9.45;;;;;;;4.43;82.26;98185.39;1758318;81;25554;-73
2022/04/09 03:20:22;;;;;;;14.87;9.75;;;;;;;4.42;82.31;98180.57;1758388;81;25558;-73
2022/04/09 03:22:50;;;;;;;12.03;9.63;;;;;;;4.43;82.15;98177.36;1758344;81;27579;-73
2022/04/09 03:25:17;;;;;;;15.75;9.68;;;;;;;4.42;82.35;98173.88;1758375;81;25540;-73
2022/04/09 03:27:44;;;;;;;13.40;9.68;;;;;;;4.42;82.41;98179.80;1758358;81;25549;-73
2022/04/09 03:30:11;;;;;;;11.33;8.70;;;;;;;4.43;82.56;98178.14;1758316;81;25469;-73
2022/04/09 03:32:41;;;;;;;10.10;8.78;;;;;;;4.44;82.52;98172.23;1758368;81;25398;-73
2022/04/09 03:35:10;;;;;;;10.08;9.00;;;;;;;4.44;82.45;98177.58;1758516;81;27503;-73
2022/04/09 03:37:38;;;;;;;12.50;9.88;;;;;;;4.53;82.60;98198.44;1728541;81;25701;-73
2022/04/09 03:40:07;;;;;;;13.83;9.30;;;;;;;4.43;82.63;98184.83;1758358;81;25457;-73
2022/04/09 03:42:34;;;;;;;13.05;10.15;;;;;;;4.42;82.81;98187.27;1758492;81;25717;-73
2022/04/09 03:45:01;;;;;;;12.78;9.15;;;;;;;4.41;82.94;98182.23;1758461;80;25578;-73
2022/04/09 03:47:27;;;;;;;15.28;9.15;;;;;;;4.37;82.92;98179.97;1758351;81;27455;-73
2022/04/09 03:49:54;;;;;;;12.75;9.18;;;;;;;4.38;83.05;98185.56;1758276;81;25762;-73
2022/04/09 03:52:20;;;;;;;13.20;9.58;;;;;;;4.37;83.10;98175.39;1758320;81;25644;-73
2022/04/09 03:54:46;;;;;;;12.50;9.90;;;;;;;4.39;83.19;98181.77;1758257;81;25377;-73
2022/04/09 03:57:13;;;;;;;13.22;9.70;;;;;;;4.37;83.20;98192.79;1758364;81;25551;-73
2022/04/09 03:59:39;;;;;;;10.98;9.23;;;;;;;4.39;83.26;98201.31;1758329;81;27486;-73
2022/04/09 04:02:06;;;;;;;11.33;9.48;;;;;;;4.39;83.37;98199.97;1758256;81;25599;-73
2022/04/09 04:04:34;;;;;;;12.80;9.88;;;;;;;4.40;83.43;98200.19;1758362;81;25401;-73
2022/04/09 04:07:01;;;;;;;10.88;9.48;;;;;;;4.39;83.37;98199.16;1758253;81;25614;-73
2022/04/09 04:09:27;;;;;;;12.43;9.75;;;;;;;4.41;83.50;98198.28;1758366;81;25542;-73
2022/04/09 04:11:54;;;;;;;14.13;9.53;;;;;;;4.39;83.73;98208.00;1758317;81;27589;-73
2022/04/09 04:14:21;;;;;;;12.53;9.68;;;;;;;4.41;83.75;98208.99;1758275;81;25582;-73
2022/04/09 04:16:48;;;;;;;12.73;9.48;;;;;;;4.38;83.74;98190.36;1758325;81;25460;-73
2022/04/09 04:19:14;;;;;;;12.20;9.48;;;;;;;4.38;83.76;98205.64;1758276;80;25591;-73
2022/04/09 04:21:40;;;;;;;11.18;9.83;;;;;;;4.38;83.91;98204.30;1758370;81;25420;-73
2022/04/09 04:24:07;;;;;;;11.25;9.13;;;;;;;4.37;83.98;98206.73;1758396;81;27466;-73
2022/04/09 04:26:34;;;;;;;12.70;9.55;;;;;;;4.37;84.04;98200.05;1758410;81;25529;-73
2022/04/09 04:29:00;;;;;;;13.22;9.95;;;;;;;4.39;84.21;98214.70;1758513;81;25421;-73
2022/04/09 04:31:27;;;;;;;12.47;10.50;;;;;;;4.40;84.27;98212.23;1758452;81;25506;-74
2022/04/09 04:33:53;;;;;;;13.25;9.90;;;;;;;4.41;84.39;98217.02;1758526;81;25595;-74
2022/04/09 04:36:19;;;;;;;11.33;9.50;;;;;;;4.41;84.35;98223.72;1758530;81;27957;-74
2022/04/09 04:38:47;;;;;;;11.53;9.48;;;;;;;4.39;84.35;98221.39;1728690;81;25788;-74
2022/04/09 04:41:14;;;;;;;11.93;9.68;;;;;;;4.41;84.54;98232.55;1758486;80;25418;-74
2022/04/09 04:43:40;;;;;;;10.90;9.33;;;;;;;4.41;84.55;98231.22;1758446;81;25646;-74
2022/04/09 04:46:06;;;;;;;11.22;10.03;;;;;;;4.46;84.81;98238.27;1758525;81;25485;-74
2022/04/09 04:48:33;;;;;;;17.42;10.95;;;;;;;4.43;84.65;98242.95;1758489;81;28053;-74
2022/04/09 04:50:59;;;;;;;14.20;10.50;;;;;;;4.45;84.71;98241.52;1758425;81;25621;-74
2022/04/09 04:53:26;;;;;;;11.05;9.23;;;;;;;4.43;84.81;98234.36;1755875;81;25425;-74
2022/04/09 04:55:52;;;;;;;14.00;11.30;;;;;;;4.47;85.01;98237.95;1730093;83;25547;-74
2022/04/09 04:58:20;;;;;;;11.75;10.45;;;;;;;4.48;85.10;98228.83;1730163;83;25500;-74
2022/04/09 05:00:46;;;;;;;12.85;10.25;;;;;;;4.51;85.09;98231.97;1730209;83;27489;-74
2022/04/09 05:03:14;;;;;;;14.90;10.68;;;;;;;4.52;85.08;98228.20;1730062;83;25573;-74
2022/04/09 05:05:41;;;;;;;14.00;10.45;;;;;;;4.54;85.11;98232.12;1730168;82;25579;-74
2022/04/09 05:08:09;;;;;;;12.33;10.40;;;;;;;4.58;85.25;98236.28;1730104;82;25560;-74
2022/04/09 05:10:35;;;;;;;12.73;10.40;;;;;;;4.60;85.30;98242.13;1730089;83;25471;-74
2022/04/09 05:13:02;;;;;;;14.13;10.70;;;;;;;4.62;85.21;98252.73;1730127;83;27475;-74
2022/04/09 05:15:29;;;;;;;13.10;10.20;;;;;;;4.66;85.38;98258.23;1730054;82;25696;-74
2022/04/09 05:17:55;;;;;;;13.30;9.83;;;;;;;4.71;85.44;98266.66;1730101;83;25406;-74
2022/04/09 05:20:22;;;;;;;12.53;10.23;;;;;;;4.74;85.46;98272.73;1730109;82;25525;-74
2022/04/09 05:22:48;;;;;;;16.57;12.85;;;;;;;4.77;85.55;98280.91;1730169;83;25453;-74
2022/04/09 05:25:19;;;;;;;34.53;21.62;;;;;;;4.80;85.51;98285.63;1730111;82;27468;-74
2022/04/09 05:27:48;;;;;;;36.17;24.40;;;;;;;4.82;85.49;98294.69;1730086;82;25677;-74
2022/04/09 05:30:15;;;;;;;35.33;23.02;;;;;;;4.81;85.45;98292.55;1730229;82;25480;-74
2022/04/09 05:32:43;;;;;;;34.15;23.65;;;;;;;4.84;85.49;98299.95;1730040;83;26141;-74
2022/04/09 05:35:11;;;;;;;32.75;22.82;;;;;;;4.86;85.54;98301.75;1730097;83;25577;-74
2022/04/09 05:37:37;;;;;;;25.90;20.08;;;;;;;4.88;85.58;98302.77;1730111;82;28177;-75
2022/04/09 05:40:05;;;;;;;23.10;16.87;;;;;;;4.92;85.69;98305.06;1730020;83;25630;-75
2022/04/09 05:42:32;;;;;;;22.52;15.85;;;;;;;4.94;85.71;98306.86;1730129;83;25638;-75
2022/04/09 05:44:58;;;;;;;20.30;14.33;;;;;;;4.96;85.75;98299.84;1730105;83;25546;-75
2022/04/09 05:47:26;;;;;;;22.95;16.40;;;;;;;4.97;85.55;98307.56;1730142;83;25417;-75
2022/04/09 05:49:52;;;;;;;17.67;12.05;;;;;;;4.96;85.28;98305.98;1730161;82;27478;-75
2022/04/09 05:52:19;;;;;;;14.20;11.93;;;;;;;4.97;85.28;98307.56;1730033;82;25607;-75
2022/04/09 05:54:48;;;;;;;11.90;10.18;;;;;;;4.95;85.18;98315.67;1730206;81;25410;-74
2022/04/09 05:57:15;;;;;;;13.80;9.83;;;;;;;4.96;85.16;98310.56;1730210;83;25467;-74
2022/04/09 05:59:41;;;;;;;12.20;8.90;;;;;;;4.96;85.04;98312.69;1730168;83;25615;-74
2022/04/09 06:02:08;;;;;;;11.40;7.92;;;;;;;4.94;84.97;98304.72;1730132;82;27559;-74
2022/04/09 06:04:35;;;;;;;10.68;8.40;;;;;;;4.96;84.91;98311.91;1730042;82;25406;-74
2022/04/09 06:07:06;;;;;;;8.93;8.03;;;;;;;4.97;84.96;98317.48;1730169;83;25561;-74
2022/04/09 06:09:32;;;;;;;9.60;7.65;;;;;;;4.97;85.02;98313.46;1730091;82;26223;-74
2022/04/09 06:11:59;;;;;;;16.80;11.75;;;;;;;4.98;84.86;98317.72;1730072;83;25387;-75
2022/04/09 06:14:25;;;;;;;13.48;8.95;;;;;;;5.01;85.05;98321.11;1730054;83;27496;-74
2022/04/09 06:16:52;;;;;;;10.43;7.58;;;;;;;5.02;84.74;98321.33;1730020;83;25393;-74
2022/04/09 06:19:18;;;;;;;8.35;7.45;;;;;;;5.05;84.89;98326.05;1730085;82;25636;-74
2022/04/09 06:21:45;;;;;;;11.45;8.90;;;;;;;5.09;85.15;98334.23;1730078;83;25533;-74
2022/04/09 06:24:11;;;;;;;8.18;7.33;;;;;;;5.14;85.41;98339.42;1730047;83;25734;-74
2022/04/09 06:26:37;;;;;;;8.78;7.83;;;;;;;5.17;85.33;98335.55;1730114;82;27698;-74
2022/04/09 06:29:04;;;;;;;9.15;7.37;;;;;;;5.21;85.13;98345.06;1729992;83;25863;-74
2022/04/09 06:31:30;;;;;;;8.38;6.87;;;;;;;5.20;84.83;98349.65;1730133;83;25434;-74
2022/04/09 06:33:57;;;;;;;7.22;6.50;;;;;;;5.20;84.77;98355.02;1730084;83;25558;-73
2022/04/09 06:36:24;;;;;;;11.43;7.53;;;;;;;5.21;84.83;98353.11;1730103;83;25395;-74
2022/04/09 06:38:51;;;;;;;8.93;6.40;;;;;;;5.21;84.64;98353.11;1730086;83;27560;-71
2022/04/09 06:41:18;;;;;;;8.68;7.22;;;;;;;5.23;85.03;98354.94;1730007;83;25596;-71
2022/04/09 06:43:47;;;;;;;8.70;7.12;;;;;;;5.26;84.90;98350.81;1730065;83;25473;-71
2022/04/09 06:46:15;;;;;;;7.40;6.53;;;;;;;5.24;84.87;98339.87;1730002;82;25555;-72
2022/04/09 06:48:42;;;;;;;8.05;7.25;;;;;;;5.24;84.69;98330.49;1729941;82;25563;-72
2022/04/09 06:51:09;;;;;;;10.78;7.75;;;;;;;5.26;85.06;98341.43;1730057;82;28094;-72
2022/04/09 06:53:35;;;;;;;10.18;8.55;;;;;;;5.27;85.11;98339.00;1729896;83;25688;-72
2022/04/09 06:56:04;;;;;;;11.28;10.03;;;;;;;5.31;85.38;98334.55;1729961;81;25604;-72
2022/04/09 06:58:31;;;;;;;14.30;11.48;;;;;;;5.40;85.87;98338.00;1730081;83;25587;-72
2022/04/09 07:00:58;;;;;;;15.95;11.20;;;;;;;5.51;86.03;98343.22;1730084;82;25458;-72
2022/04/09 07:03:26;;;;;;;11.15;9.98;;;;;;;5.58;85.75;98344.06;1730055;83;27592;-71
2022/04/09 07:05:53;;;;;;;11.50;9.88;;;;;;;5.63;85.89;98339.85;1729998;82;25715;-71
2022/04/09 07:08:21;;;;;;;13.32;9.55;;;;;;;5.71;85.60;98340.93;1730057;83;25445;-71
2022/04/09 07:10:47;;;;;;;9.65;7.42;;;;;;;5.83;86.01;98338.89;1730081;83;25422;-73
2022/04/09 07:13:13;;;;;;;8.08;7.28;;;;;;;5.93;85.14;98346.00;1730117;83;25545;-73
2022/04/09 07:15:40;;;;;;;8.05;7.22;;;;;;;5.98;84.51;98353.89;1730071;82;27502;-72
2022/04/09 07:18:07;;;;;;;11.35;7.58;;;;;;;6.08;84.71;98367.50;1729946;83;25446;-72
2022/04/09 07:20:35;;;;;;;8.13;7.30;;;;;;;6.19;84.99;98372.48;1730036;83;25607;-73
2022/04/09 07:23:03;;;;;;;9.45;7.67;;;;;;;6.23;84.41;98375.54;1729985;83;26094;-71
2022/04/09 07:25:31;;;;;;;10.15;6.95;;;;;;;6.32;84.86;98385.64;1730073;83;25630;-71
2022/04/09 07:27:58;;;;;;;7.30;6.05;;;;;;;6.32;83.90;98385.64;1730074;82;27456;-73
2022/04/09 07:30:26;;;;;;;8.30;6.67;;;;;;;6.30;83.74;98385.20;1729938;83;25745;-72
2022/04/09 07:32:58;;;;;;;7.28;6.25;;;;;;;6.32;83.94;98392.36;1729733;83;25669;-73
2022/04/09 07:35:26;;;;;;;6.95;6.10;;;;;;;6.39;83.61;98403.15;1729811;83;25527;-72
2022/04/09 07:37:55;;;;;;;7.80;6.30;;;;;;;6.43;83.87;98399.46;1729779;83;25633;-72
2022/04/09 07:40:24;;;;;;;7.85;6.35;;;;;;;6.52;83.62;98412.28;1729849;83;27472;-72
2022/04/09 07:42:51;;;;;;;10.48;7.50;;;;;;;6.50;82.79;98419.09;1729844;82;25779;-72
2022/04/09 07:45:19;;;;;;;9.20;7.35;;;;;;;6.50;83.13;98425.80;1729733;83;25719;-72
2022/04/09 07:47:46;;;;;;;9.30;6.97;;;;;;;6.51;82.60;98435.45;1729652;83;25460;-73
2022/04/09 07:50:13;;;;;;;8.78;6.65;;;;;;;6.53;83.14;98450.67;1729752;83;25425;-73
2022/04/09 07:52:46;;;;;;;9.53;6.90;;;;;;;6.64;83.23;98447.03;1729719;82;27512;-71
2022/04/09 07:55:14;;;;;;;8.63;6.42;;;;;;;6.67;82.36;98450.41;1728549;81;25674;-72
2022/04/09 07:57:41;;;;;;;8.50;6.28;;;;;;;6.68;82.27;98459.48;1729880;83;25429;-71
2022/04/09 08:00:09;;;;;;;8.10;6.70;;;;;;;6.68;82.04;98462.74;1729599;83;25634;-71
2022/04/09 08:02:35;;;;;;;7.60;6.47;;;;;;;6.70;81.83;98462.63;1729854;82;25717;-71
2022/04/09 08:05:02;;;;;;;8.80;6.60;;;;;;;6.81;82.49;98471.64;1712966;83;27675;-72
2022/04/09 08:07:29;;;;;;;10.35;7.20;;;;;;;6.88;81.72;98479.42;1729704;83;25728;-72
2022/04/09 08:09:55;;;;;;;12.40;7.85;;;;;;;6.99;82.02;98491.12;1729706;82;25631;-71
2022/04/09 08:12:22;;;;;;;10.38;7.45;;;;;;;7.08;81.58;98491.82;1729706;83;25640;-71
2022/04/09 08:14:48;;;;;;;9.50;7.67;;;;;;;7.15;80.75;98492.09;1729735;82;25448;-71
2022/04/09 08:17:18;;;;;;;10.95;7.28;;;;;;;7.20;80.58;98499.96;1729730;83;27410;-71
2022/04/09 08:19:43;;;;;;;12.80;7.62;;;;;;;7.23;79.96;98504.66;1729545;82;25686;-71
2022/04/09 08:22:09;;;;;;;10.28;8.35;;;;;;;7.24;79.80;98512.19;1712921;83;25739;-73
2022/04/09 08:24:38;;;;;;;10.68;7.72;;;;;;;7.25;79.52;98517.78;1729832;83;25446;-71
2022/04/09 08:27:04;;;;;;;12.00;8.05;;;;;;;7.27;79.44;98520.91;1729744;82;25673;-73
2022/04/09 08:29:30;;;;;;;13.40;8.90;;;;;;;7.35;79.48;98526.00;1729870;82;27383;-72
2022/04/09 08:31:57;;;;;;;12.28;8.63;;;;;;;7.43;80.16;98527.27;1729579;83;25784;-72
2022/04/09 08:34:26;;;;;;;13.75;8.28;;;;;;;7.52;78.85;98528.53;1729794;83;25412;-72
2022/04/09 08:36:51;;;;;;;13.38;8.03;;;;;;;7.56;78.81;98526.77;1729637;82;25690;-72
2022/04/09 08:39:18;;;;;;;10.08;8.58;;;;;;;7.66;78.82;98524.19;1729802;82;25725;-72
2022/04/09 08:41:44;;;;;;;11.75;8.98;;;;;;;7.81;78.49;98524.13;1729840;83;27425;-70
2022/04/09 08:44:12;;;;;;;12.35;8.75;;;;;;;8.01;78.54;98534.03;1729589;83;25551;-72
2022/04/09 08:46:40;;;;;;;13.20;9.00;;;;;;;8.25;78.81;98535.75;1729511;83;25393;-72
2022/04/09 08:49:08;;;;;;;13.20;9.45;;;;;;;8.54;79.69;98537.45;1729223;82;25762;-72
2022/04/09 08:51:35;;;;;;;12.35;9.15;;;;;;;8.97;78.47;98538.73;1729481;82;25724;-72
2022/04/09 08:54:02;;;;;;;10.35;8.95;;;;;;;9.28;77.93;98546.20;1729628;83;27387;-71
2022/04/09 08:56:29;;;;;;;12.55;9.03;;;;;;;9.62;76.68;98547.28;1729489;81;25630;-73
2022/04/09 08:58:59;;;;;;;10.10;8.88;;;;;;;9.73;75.19;98548.36;1729749;83;25430;-73
2022/04/09 09:01:28;;;;;;;11.83;9.03;;;;;;;9.95;75.09;98545.65;1729655;82;25459;-72
2022/04/09 09:03:57;;;;;;;13.20;9.25;;;;;;;10.17;74.02;98550.25;1729765;83;25647;-73
2022/04/09 09:06:34;;;;;;;15.63;10.08;;;;;;;10.33;72.88;98550.27;1729859;83;27315;-73
2022/04/09 09:09:08;;;;;;;12.65;10.25;;;;;;;10.49;71.89;98556.45;1729741;83;25580;-73
2022/04/09 09:11:49;;;;;;;16.12;9.98;;;;;;;10.80;72.63;98550.78;1729745;82;25629;-72
2022/04/09 09:14:30;;;;;;;13.93;9.68;;;;;;;11.02;67.85;98560.14;1729835;82;25474;-72
2022/04/09 09:17:00;;;;;;;13.50;9.43;;;;;;;11.07;69.86;98553.10;1729955;83;25451;-72
2022/04/09 09:19:47;;;;;;;13.00;9.25;;;;;;;11.33;66.85;98542.22;1713511;83;26934;-71
2022/04/09 09:22:15;;;;;;;12.18;8.98;;;;;;;11.37;66.72;98547.13;1729797;83;26280;-72
2022/04/09 09:24:41;;;;;;;14.18;10.32;;;;;;;11.45;67.34;98556.95;1713046;83;25691;-72
2022/04/09 09:27:09;;;;;;;13.60;9.45;;;;;;;11.62;66.72;98575.27;1729911;83;25708;-72
2022/04/09 09:29:36;;;;;;;18.23;9.93;;;;;;;11.55;66.14;98592.16;1729874;83;25465;-72
2022/04/09 09:32:06;;;;;;;13.58;10.93;;;;;;;11.53;66.02;98612.83;1730032;82;27387;-72
2022/04/09 09:34:36;;;;;;;14.90;9.53;;;;;;;11.49;64.83;98618.75;1729947;83;25382;-72
2022/04/09 09:37:03;;;;;;;14.03;9.58;;;;;;;11.43;63.86;98611.26;1729976;82;25446;-72
2022/04/09 09:39:33;;;;;;;46.88;24.10;;;;;;;11.29;62.46;98604.95;1729814;82;25650;-73
2022/04/09 09:42:03;;;;;;;34.38;22.02;;;;;;;11.21;62.69;98603.45;1729744;82;25460;-72
2022/04/09 09:44:34;;;;;;;14.98;10.10;;;;;;;11.32;63.21;98606.95;1729908;82;27392;-73
2022/04/09 09:47:18;;;;;;;16.00;11.03;;;;;;;11.31;61.54;98610.23;1729836;83;25411;-72
2022/04/09 09:49:58;;;;;;;21.75;12.78;;;;;;;11.19;62.21;98622.55;1728696;82;25657;-72
2022/04/09 09:52:37;;;;;;;17.67;12.03;;;;;;;11.06;61.57;98621.87;1729797;82;25724;-72
2022/04/09 09:55:20;;;;;;;20.77;13.28;;;;;;;10.87;61.42;98624.53;1729913;83;25681;-73
2022/04/09 09:57:42;;;;;;;16.77;11.33;;;;;;;10.78;62.33;98631.48;1728284;82;27347;-72
2022/04/09 10:00:12;;;;;;;16.30;10.18;;;;;;;10.75;62.18;98637.02;1729834;83;25659;-72
2022/04/09 10:02:44;;;;;;;15.28;9.98;;;;;;;10.74;62.01;98631.95;1730090;82;25674;-71
2022/04/09 10:05:12;;;;;;;10.45;8.68;;;;;;;11.15;61.07;98634.66;1730011;82;25694;-71
2022/04/09 10:07:39;;;;;;;11.78;8.85;;;;;;;11.63;60.70;98633.69;1730087;83;25623;-71
2022/04/09 10:10:07;;;;;;;16.37;8.80;;;;;;;12.14;58.04;98650.59;1731359;82;27298;-72
2022/04/09 10:12:40;;;;;;;13.43;7.15;;;;;;;12.49;60.21;98638.02;1731844;82;25711;-72
2022/04/09 10:15:08;;;;;;;11.00;8.05;;;;;;;12.47;54.64;98637.03;1732520;83;25287;-72
2022/04/09 10:17:35;;;;;;;10.45;7.53;;;;;;;12.73;57.49;98638.22;1732793;83;26148;-70
2022/04/09 10:20:05;;;;;;;11.08;6.47;;;;;;;13.47;57.04;98638.91;1732072;83;25266;-72
2022/04/09 10:22:45;;;;;;;11.43;7.15;;;;;;;14.37;56.67;98648.28;1732681;82;27336;-72
2022/04/09 10:25:14;;;;;;;25.75;13.85;;;;;;;14.74;52.39;98669.80;1732393;82;25247;-70
2022/04/09 10:27:44;;;;;;;42.88;17.67;;;;;;;14.38;53.35;98665.38;1732519;83;25199;-70
2022/04/09 10:30:24;;;;;;;41.55;17.02;;;;;;;14.11;52.01;98668.79;1731854;83;25418;-72
2022/04/09 10:32:57;;;;;;;50.88;24.43;;;;;;;13.89;50.77;98672.61;1731823;83;25675;-71
2022/04/09 10:35:40;;;;;;;33.95;18.48;;;;;;;13.54;48.57;98675.69;1732527;82;28108;-70
2022/04/09 10:38:13;;;;;;;16.52;7.62;;;;;;;13.06;49.51;98683.72;1732333;83;25254;-71
2022/04/09 10:40:57;;;;;;;11.03;5.00;;;;;;;12.55;48.19;98661.55;1732156;83;25626;-71
2022/04/09 10:43:30;;;;;;;8.20;5.47;;;;;;;12.05;45.74;98667.64;1730698;83;25771;-71
2022/04/09 10:46:16;;;;;;;12.53;5.42;;;;;;;11.48;48.57;98690.27;1730087;82;25556;-71
2022/04/09 10:48:42;;;;;;;12.25;5.75;;;;;;;11.07;48.84;98692.45;1729382;82;28086;-72
2022/04/09 10:51:12;;;;;;;10.35;6.12;;;;;;;10.79;49.53;98697.37;1729743;82;25698;-73
2022/04/09 10:53:44;;;;;;;;;;;;;;;10.58;50.48;98698.98;1732319;83;25642;-72
2022/04/09 10:56:33;;;;;;;6.85;4.53;;;;;;;10.54;51.51;98712.98;1739295;81;25483;-72
2022/04/09 10:59:16;;;;;;;7.50;4.78;;;;;;;10.59;51.99;98709.22;1757147;81;25653;-72
2022/04/09 11:01:50;;;;;;;7.05;4.70;;;;;;;11.28;52.18;98715.73;1758111;81;27393;-72
2022/04/09 11:04:34;;;;;;;7.78;5.53;;;;;;;11.89;52.37;98721.11;1758104;81;25582;-71
2022/04/09 11:07:11;;;;;;;15.15;5.92;;;;;;;12.23;51.45;98722.20;1758255;81;25724;-72
2022/04/09 11:10:00;;;;;;;12.55;5.28;;;;;;;12.30;49.14;98737.82;1758040;81;25410;-71
2022/04/09 11:12:43;;;;;;;11.05;5.75;;;;;;;12.04;49.45;98735.77;1758266;81;32664;-72
2022/04/09 11:15:13;;;;;;;9.78;5.65;;;;;;;11.71;49.31;98729.66;1758095;81;27435;-71
2022/04/09 11:17:49;;;;;;;11.83;5.90;;;;;;;11.58;49.78;98732.27;1728332;81;25711;-70
2022/04/09 11:20:17;;;;;;;11.40;5.90;;;;;;;11.43;50.12;98732.50;1757219;81;26126;-69
2022/04/09 11:22:55;;;;;;;9.55;5.30;;;;;;;11.42;50.19;98734.98;1728355;81;25673;-71
2022/04/09 11:25:27;;;;;;;9.70;5.30;;;;;;;11.41;50.16;98744.27;1758454;81;25608;-71
2022/04/09 11:28:10;;;;;;;12.63;6.58;;;;;;;11.38;49.54;98755.79;1758167;81;27317;-71
2022/04/09 11:30:36;;;;;;;29.50;14.58;;;;;;;11.28;50.09;98756.33;1758124;81;25586;-72
2022/04/09 11:33:02;;;;;;;25.75;13.48;;;;;;;11.23;50.15;98761.42;1728355;81;25470;-72
2022/04/09 11:35:35;;;;;;;16.10;6.45;;;;;;;11.18;50.78;98756.28;1758073;81;25951;-71
2022/04/09 11:38:02;;;;;;;7.87;4.50;;;;;;;11.15;50.54;98761.03;1757941;81;25539;-72
2022/04/09 11:40:29;;;;;;;7.78;4.25;;;;;;;11.14;49.17;98768.95;1728189;81;27256;-71